sensor_id;sensor_type;location;lat;lon;timestamp;temperature;humidity
22635;DHT22;11484;50.858;4.384;2022-08-04T00:00:00;27.20;93.70
22635;DHT22;11484;50.858;4.384;2022-08-04T00:02:35;27.10;94.00
22635;DHT22;11484;50.858;4.384;2022-08-04T00:05:06;27.10;94.20
22635;DHT22;11484;50.858;4.384;2022-08-04T00:08:10;27.00;94.50
22635;DHT22;11484;50.858;4.384;2022-08-04T00:10:43;27.00;94.90
22635;DHT22;11484;50.858;4.384;2022-08-04T00:13:12;27.00;94.90
22635;DHT22;11484;50.858;4.384;2022-08-04T00:15:39;27.00;94.90
22635;DHT22;11484;50.858;4.384;2022-08-04T00:18:08;27.00;94.90
22635;DHT22;11484;50.858;4.384;2022-08-04T00:20:38;27.10;94.80
22635;DHT22;11484;50.858;4.384;2022-08-04T00:23:06;27.00;94.70
22635;DHT22;11484;50.858;4.384;2022-08-04T00:25:39;27.00;94.80
22635;DHT22;11484;50.858;4.384;2022-08-04T00:28:07;27.00;95.00
22635;DHT22;11484;50.858;4.384;2022-08-04T00:30:33;27.00;95.10
22635;DHT22;11484;50.858;4.384;2022-08-04T00:32:59;26.90;95.20
22635;DHT22;11484;50.858;4.384;2022-08-04T00:35:26;26.90;95.30
22635;DHT22;11484;50.858;4.384;2022-08-04T00:37:52;26.80;95.40
22635;DHT22;11484;50.858;4.384;2022-08-04T00:43:42;26.70;95.70
22635;DHT22;11484;50.858;4.384;2022-08-04T00:46:34;26.60;95.80
22635;DHT22;11484;50.858;4.384;2022-08-04T00:49:35;26.60;95.80
22635;DHT22;11484;50.858;4.384;2022-08-04T00:52:35;26.60;95.90
22635;DHT22;11484;50.858;4.384;2022-08-04T00:55:29;26.60;95.90
22635;DHT22;11484;50.858;4.384;2022-08-04T00:58:17;26.60;96.20
22635;DHT22;11484;50.858;4.384;2022-08-04T01:01:01;26.50;96.30
22635;DHT22;11484;50.858;4.384;2022-08-04T01:03:41;26.50;96.40
22635;DHT22;11484;50.858;4.384;2022-08-04T01:09:23;26.50;96.70
22635;DHT22;11484;50.858;4.384;2022-08-04T01:12:27;26.50;96.90
22635;DHT22;11484;50.858;4.384;2022-08-04T01:15:16;26.40;97.00
22635;DHT22;11484;50.858;4.384;2022-08-04T01:20:32;26.40;97.00
22635;DHT22;11484;50.858;4.384;2022-08-04T01:29:14;26.40;97.20
22635;DHT22;11484;50.858;4.384;2022-08-04T01:34:21;26.30;97.50
22635;DHT22;11484;50.858;4.384;2022-08-04T01:37:07;26.20;97.60
22635;DHT22;11484;50.858;4.384;2022-08-04T01:39:43;26.20;97.70
22635;DHT22;11484;50.858;4.384;2022-08-04T01:42:18;26.20;97.90
22635;DHT22;11484;50.858;4.384;2022-08-04T01:44:47;26.10;98.10
22635;DHT22;11484;50.858;4.384;2022-08-04T01:47:16;26.10;98.30
22635;DHT22;11484;50.858;4.384;2022-08-04T01:49:48;26.10;98.40
22635;DHT22;11484;50.858;4.384;2022-08-04T01:52:16;26.00;98.50
22635;DHT22;11484;50.858;4.384;2022-08-04T01:54:42;26.00;98.60
22635;DHT22;11484;50.858;4.384;2022-08-04T01:57:11;26.00;98.70
22635;DHT22;11484;50.858;4.384;2022-08-04T01:59:40;25.90;98.70
22635;DHT22;11484;50.858;4.384;2022-08-04T02:02:08;25.80;99.00
22635;DHT22;11484;50.858;4.384;2022-08-04T02:04:36;25.70;99.10
22635;DHT22;11484;50.858;4.384;2022-08-04T02:07:06;25.80;99.10
22635;DHT22;11484;50.858;4.384;2022-08-04T02:09:46;25.70;99.10
22635;DHT22;11484;50.858;4.384;2022-08-04T02:15:07;25.70;99.10
22635;DHT22;11484;50.858;4.384;2022-08-04T02:17:49;25.70;99.10
22635;DHT22;11484;50.858;4.384;2022-08-04T02:20:27;25.70;99.10
22635;DHT22;11484;50.858;4.384;2022-08-04T02:23:07;25.70;99.20
22635;DHT22;11484;50.858;4.384;2022-08-04T02:25:46;25.60;99.10
22635;DHT22;11484;50.858;4.384;2022-08-04T02:33:44;25.60;98.80
22635;DHT22;11484;50.858;4.384;2022-08-04T02:36:23;25.60;98.70
22635;DHT22;11484;50.858;4.384;2022-08-04T02:38:59;25.60;98.50
22635;DHT22;11484;50.858;4.384;2022-08-04T02:41:26;25.60;98.50
22635;DHT22;11484;50.858;4.384;2022-08-04T02:43:59;25.60;98.50
22635;DHT22;11484;50.858;4.384;2022-08-04T02:46:28;25.60;98.70
22635;DHT22;11484;50.858;4.384;2022-08-04T02:48:56;25.50;98.80
22635;DHT22;11484;50.858;4.384;2022-08-04T02:51:36;25.40;98.80
22635;DHT22;11484;50.858;4.384;2022-08-04T02:54:05;25.40;98.80
22635;DHT22;11484;50.858;4.384;2022-08-04T02:56:32;25.40;98.90
22635;DHT22;11484;50.858;4.384;2022-08-04T02:59:04;25.40;98.90
22635;DHT22;11484;50.858;4.384;2022-08-04T03:01:31;25.30;99.20
22635;DHT22;11484;50.858;4.384;2022-08-04T03:10:11;25.20;99.60
22635;DHT22;11484;50.858;4.384;2022-08-04T03:35:02;24.80;99.90
22635;DHT22;11484;50.858;4.384;2022-08-04T03:37:43;24.80;99.90
22635;DHT22;11484;50.858;4.384;2022-08-04T04:00:20;24.60;98.50
22635;DHT22;11484;50.858;4.384;2022-08-04T04:14:29;24.60;98.20
22635;DHT22;11484;50.858;4.384;2022-08-04T04:17:20;24.60;97.80
22635;DHT22;11484;50.858;4.384;2022-08-04T04:43:26;24.20;97.50
22635;DHT22;11484;50.858;4.384;2022-08-04T04:48:47;24.00;98.20
22635;DHT22;11484;50.858;4.384;2022-08-04T04:57:14;24.00;98.70
22635;DHT22;11484;50.858;4.384;2022-08-04T04:59:54;23.90;99.10
22635;DHT22;11484;50.858;4.384;2022-08-04T05:08:01;24.00;99.10
22635;DHT22;11484;50.858;4.384;2022-08-04T05:10:51;24.10;99.00
22635;DHT22;11484;50.858;4.384;2022-08-04T05:16:08;24.20;98.90
22635;DHT22;11484;50.858;4.384;2022-08-04T05:18:37;24.10;98.90
22635;DHT22;11484;50.858;4.384;2022-08-04T05:21:33;24.20;98.90
22635;DHT22;11484;50.858;4.384;2022-08-04T05:24:05;24.30;98.80
22635;DHT22;11484;50.858;4.384;2022-08-04T05:26:36;24.30;98.80
22635;DHT22;11484;50.858;4.384;2022-08-04T05:29:12;24.30;98.80
22635;DHT22;11484;50.858;4.384;2022-08-04T05:31:50;24.40;98.70
22635;DHT22;11484;50.858;4.384;2022-08-04T05:34:21;24.40;98.60
22635;DHT22;11484;50.858;4.384;2022-08-04T05:36:52;24.40;98.60
22635;DHT22;11484;50.858;4.384;2022-08-04T05:39:24;24.50;98.70
22635;DHT22;11484;50.858;4.384;2022-08-04T05:41:51;24.60;98.70
22635;DHT22;11484;50.858;4.384;2022-08-04T05:44:21;24.60;98.50
22635;DHT22;11484;50.858;4.384;2022-08-04T05:46:55;24.70;98.50
22635;DHT22;11484;50.858;4.384;2022-08-04T05:49:26;24.70;98.30
22635;DHT22;11484;50.858;4.384;2022-08-04T05:51:57;24.70;98.30
22635;DHT22;11484;50.858;4.384;2022-08-04T05:54:24;24.80;98.30
22635;DHT22;11484;50.858;4.384;2022-08-04T05:56:52;24.90;98.20
22635;DHT22;11484;50.858;4.384;2022-08-04T05:59:19;25.00;98.20
22635;DHT22;11484;50.858;4.384;2022-08-04T06:01:48;25.10;98.10
22635;DHT22;11484;50.858;4.384;2022-08-04T06:04:15;25.20;98.10
22635;DHT22;11484;50.858;4.384;2022-08-04T06:06:43;25.30;97.90
22635;DHT22;11484;50.858;4.384;2022-08-04T06:09:09;25.30;97.60
22635;DHT22;11484;50.858;4.384;2022-08-04T06:11:37;25.40;97.60
22635;DHT22;11484;50.858;4.384;2022-08-04T06:14:07;25.40;97.70
22635;DHT22;11484;50.858;4.384;2022-08-04T06:16:38;25.40;97.60
22635;DHT22;11484;50.858;4.384;2022-08-04T06:19:09;25.50;97.70
22635;DHT22;11484;50.858;4.384;2022-08-04T06:21:38;25.50;97.60
22635;DHT22;11484;50.858;4.384;2022-08-04T06:24:07;25.50;97.40
22635;DHT22;11484;50.858;4.384;2022-08-04T06:26:39;25.70;97.30
22635;DHT22;11484;50.858;4.384;2022-08-04T06:29:05;25.80;97.30
22635;DHT22;11484;50.858;4.384;2022-08-04T06:31:41;25.90;97.30
22635;DHT22;11484;50.858;4.384;2022-08-04T06:34:11;26.20;97.10
22635;DHT22;11484;50.858;4.384;2022-08-04T06:36:40;27.20;95.60
22635;DHT22;11484;50.858;4.384;2022-08-04T06:39:07;28.20;93.10
22635;DHT22;11484;50.858;4.384;2022-08-04T06:41:34;28.90;91.30
22635;DHT22;11484;50.858;4.384;2022-08-04T06:44:04;29.30;90.10
22635;DHT22;11484;50.858;4.384;2022-08-04T06:46:31;29.40;88.50
22635;DHT22;11484;50.858;4.384;2022-08-04T06:48:58;29.20;88.60
22635;DHT22;11484;50.858;4.384;2022-08-04T06:51:27;29.40;88.20
22635;DHT22;11484;50.858;4.384;2022-08-04T06:53:55;29.80;87.10
22635;DHT22;11484;50.858;4.384;2022-08-04T06:56:21;30.30;84.70
22635;DHT22;11484;50.858;4.384;2022-08-04T06:58:50;31.10;81.90
22635;DHT22;11484;50.858;4.384;2022-08-04T07:01:19;31.70;78.70
22635;DHT22;11484;50.858;4.384;2022-08-04T07:03:45;32.30;75.60
22635;DHT22;11484;50.858;4.384;2022-08-04T07:06:12;32.60;73.10
22635;DHT22;11484;50.858;4.384;2022-08-04T07:08:38;32.90;71.30
22635;DHT22;11484;50.858;4.384;2022-08-04T07:11:04;32.70;70.70
22635;DHT22;11484;50.858;4.384;2022-08-04T07:13:38;32.60;71.00
22635;DHT22;11484;50.858;4.384;2022-08-04T07:16:06;32.40;70.90
22635;DHT22;11484;50.858;4.384;2022-08-04T07:18:34;32.70;70.00
22635;DHT22;11484;50.858;4.384;2022-08-04T07:21:00;32.20;70.30
22635;DHT22;11484;50.858;4.384;2022-08-04T07:23:26;32.00;71.70
22635;DHT22;11484;50.858;4.384;2022-08-04T07:25:55;32.40;70.30
22635;DHT22;11484;50.858;4.384;2022-08-04T07:28:24;32.30;69.00
22635;DHT22;11484;50.858;4.384;2022-08-04T07:30:52;32.10;70.10
22635;DHT22;11484;50.858;4.384;2022-08-04T07:33:18;31.40;71.50
22635;DHT22;11484;50.858;4.384;2022-08-04T07:35:46;31.10;72.70
22635;DHT22;11484;50.858;4.384;2022-08-04T07:38:12;31.00;73.40
22635;DHT22;11484;50.858;4.384;2022-08-04T07:40:39;30.70;74.50
22635;DHT22;11484;50.858;4.384;2022-08-04T07:43:07;30.30;75.30
22635;DHT22;11484;50.858;4.384;2022-08-04T07:45:33;30.10;76.40
22635;DHT22;11484;50.858;4.384;2022-08-04T07:48:01;29.80;77.10
22635;DHT22;11484;50.858;4.384;2022-08-04T07:50:29;29.50;78.80
22635;DHT22;11484;50.858;4.384;2022-08-04T07:52:55;29.10;80.00
22635;DHT22;11484;50.858;4.384;2022-08-04T07:55:22;28.90;81.20
22635;DHT22;11484;50.858;4.384;2022-08-04T07:57:48;28.60;83.00
22635;DHT22;11484;50.858;4.384;2022-08-04T08:00:14;28.30;83.70
22635;DHT22;11484;50.858;4.384;2022-08-04T08:02:41;28.30;85.00
22635;DHT22;11484;50.858;4.384;2022-08-04T08:05:09;28.30;85.60
22635;DHT22;11484;50.858;4.384;2022-08-04T08:07:35;28.30;86.10
22635;DHT22;11484;50.858;4.384;2022-08-04T08:10:01;28.10;86.40
22635;DHT22;11484;50.858;4.384;2022-08-04T08:12:28;28.10;87.30
22635;DHT22;11484;50.858;4.384;2022-08-04T08:14:54;27.90;88.40
22635;DHT22;11484;50.858;4.384;2022-08-04T08:17:23;27.90;89.60
22635;DHT22;11484;50.858;4.384;2022-08-04T08:19:48;27.60;90.40
22635;DHT22;11484;50.858;4.384;2022-08-04T08:22:15;27.40;91.10
22635;DHT22;11484;50.858;4.384;2022-08-04T08:24:41;27.30;91.60
22635;DHT22;11484;50.858;4.384;2022-08-04T08:27:07;27.10;92.40
22635;DHT22;11484;50.858;4.384;2022-08-04T08:29:34;26.90;92.90
22635;DHT22;11484;50.858;4.384;2022-08-04T08:32:01;26.90;93.50
22635;DHT22;11484;50.858;4.384;2022-08-04T08:34:29;26.80;93.90
22635;DHT22;11484;50.858;4.384;2022-08-04T08:37:03;26.80;94.10
22635;DHT22;11484;50.858;4.384;2022-08-04T08:39:40;26.80;94.30
22635;DHT22;11484;50.858;4.384;2022-08-04T08:48:09;26.70;95.20
22635;DHT22;11484;50.858;4.384;2022-08-04T08:51:13;26.60;95.60
22635;DHT22;11484;50.858;4.384;2022-08-04T08:56:35;26.30;96.90
22635;DHT22;11484;50.858;4.384;2022-08-04T09:02:18;26.30;97.80
22635;DHT22;11484;50.858;4.384;2022-08-04T09:10:45;26.10;98.30
22635;DHT22;11484;50.858;4.384;2022-08-04T09:16:14;25.90;99.40
22635;DHT22;11484;50.858;4.384;2022-08-04T09:19:02;25.90;99.90
22635;DHT22;11484;50.858;4.384;2022-08-04T09:22:00;25.80;99.90
22635;DHT22;11484;50.858;4.384;2022-08-04T09:27:43;25.70;99.90
22635;DHT22;11484;50.858;4.384;2022-08-04T09:30:12;25.80;99.90
22635;DHT22;11484;50.858;4.384;2022-08-04T09:38:56;25.70;99.90
22635;DHT22;11484;50.858;4.384;2022-08-04T09:41:45;25.70;99.90
22635;DHT22;11484;50.858;4.384;2022-08-04T09:49:42;25.90;99.90
22635;DHT22;11484;50.858;4.384;2022-08-04T09:52:44;25.90;99.90
22635;DHT22;11484;50.858;4.384;2022-08-04T09:55:23;26.00;99.90
22635;DHT22;11484;50.858;4.384;2022-08-04T09:58:19;26.00;99.90
22635;DHT22;11484;50.858;4.384;2022-08-04T10:00:52;25.80;99.90
22635;DHT22;11484;50.858;4.384;2022-08-04T10:03:22;25.80;99.90
22635;DHT22;11484;50.858;4.384;2022-08-04T10:11:10;26.20;99.90
22635;DHT22;11484;50.858;4.384;2022-08-04T10:19:28;27.90;97.30
22635;DHT22;11484;50.858;4.384;2022-08-04T10:22:14;28.50;96.10
22635;DHT22;11484;50.858;4.384;2022-08-04T10:27:46;29.00;94.50
22635;DHT22;11484;50.858;4.384;2022-08-04T10:30:16;28.60;94.50
22635;DHT22;11484;50.858;4.384;2022-08-04T10:32:54;28.50;94.50
22635;DHT22;11484;50.858;4.384;2022-08-04T10:35:25;28.70;94.40
22635;DHT22;11484;50.858;4.384;2022-08-04T10:38:09;28.90;93.90
22635;DHT22;11484;50.858;4.384;2022-08-04T10:46:14;29.00;93.80
22635;DHT22;11484;50.858;4.384;2022-08-04T10:57:49;29.80;91.80
22635;DHT22;11484;50.858;4.384;2022-08-04T11:00:25;29.80;90.70
22635;DHT22;11484;50.858;4.384;2022-08-04T11:06:05;29.70;90.20
22635;DHT22;11484;50.858;4.384;2022-08-04T11:08:46;29.50;90.60
22635;DHT22;11484;50.858;4.384;2022-08-04T11:11:16;29.50;90.50
22635;DHT22;11484;50.858;4.384;2022-08-04T11:14:01;29.40;90.40
22635;DHT22;11484;50.858;4.384;2022-08-04T11:16:48;29.40;90.70
22635;DHT22;11484;50.858;4.384;2022-08-04T11:19:33;29.50;91.00
22635;DHT22;11484;50.858;4.384;2022-08-04T11:22:07;29.50;90.80
22635;DHT22;11484;50.858;4.384;2022-08-04T11:27:14;29.40;90.80
22635;DHT22;11484;50.858;4.384;2022-08-04T11:32:20;29.10;90.90
22635;DHT22;11484;50.858;4.384;2022-08-04T11:34:55;29.10;90.70
22635;DHT22;11484;50.858;4.384;2022-08-04T11:40:12;29.10;91.10
22635;DHT22;11484;50.858;4.384;2022-08-04T11:42:52;29.10;91.00
22635;DHT22;11484;50.858;4.384;2022-08-04T11:45:24;29.20;91.00
22635;DHT22;11484;50.858;4.384;2022-08-04T11:48:47;29.10;91.10
22635;DHT22;11484;50.858;4.384;2022-08-04T11:51:04;29.00;91.40
22635;DHT22;11484;50.858;4.384;2022-08-04T11:53:34;29.00;91.00
22635;DHT22;11484;50.858;4.384;2022-08-04T11:56:06;29.10;90.70
22635;DHT22;11484;50.858;4.384;2022-08-04T11:58:33;29.10;90.80
22635;DHT22;11484;50.858;4.384;2022-08-04T12:01:19;29.20;90.30
22635;DHT22;11484;50.858;4.384;2022-08-04T12:04:13;29.20;90.40
22635;DHT22;11484;50.858;4.384;2022-08-04T12:12:45;29.10;89.80
22635;DHT22;11484;50.858;4.384;2022-08-04T12:15:29;29.20;88.10
22635;DHT22;11484;50.858;4.384;2022-08-04T12:18:13;29.20;86.90
22635;DHT22;11484;50.858;4.384;2022-08-04T12:20:57;29.20;87.90
22635;DHT22;11484;50.858;4.384;2022-08-04T12:23:52;29.00;89.40
22635;DHT22;11484;50.858;4.384;2022-08-04T12:26:24;28.80;90.20
22635;DHT22;11484;50.858;4.384;2022-08-04T12:28:58;28.80;90.30
22635;DHT22;11484;50.858;4.384;2022-08-04T12:34:06;28.80;90.30
22635;DHT22;11484;50.858;4.384;2022-08-04T12:36:50;28.70;90.40
22635;DHT22;11484;50.858;4.384;2022-08-04T12:39:20;28.70;90.30
22635;DHT22;11484;50.858;4.384;2022-08-04T12:42:01;28.80;90.20
22635;DHT22;11484;50.858;4.384;2022-08-04T12:44:34;28.70;90.70
22635;DHT22;11484;50.858;4.384;2022-08-04T12:47:03;28.70;90.80
22635;DHT22;11484;50.858;4.384;2022-08-04T12:49:32;28.80;90.90
22635;DHT22;11484;50.858;4.384;2022-08-04T12:52:04;28.80;90.80
22635;DHT22;11484;50.858;4.384;2022-08-04T12:54:33;28.80;90.40
22635;DHT22;11484;50.858;4.384;2022-08-04T12:57:06;28.80;90.20
22635;DHT22;11484;50.858;4.384;2022-08-04T12:59:42;28.80;90.10
22635;DHT22;11484;50.858;4.384;2022-08-04T13:02:16;28.80;90.40
22635;DHT22;11484;50.858;4.384;2022-08-04T13:04:43;28.90;90.10
22635;DHT22;11484;50.858;4.384;2022-08-04T13:07:14;29.00;89.80
22635;DHT22;11484;50.858;4.384;2022-08-04T13:09:41;29.10;89.60
22635;DHT22;11484;50.858;4.384;2022-08-04T13:14:39;29.40;87.60
22635;DHT22;11484;50.858;4.384;2022-08-04T13:17:09;29.50;87.10
22635;DHT22;11484;50.858;4.384;2022-08-04T13:19:35;29.60;86.90
22635;DHT22;11484;50.858;4.384;2022-08-04T13:22:04;29.60;87.00
22635;DHT22;11484;50.858;4.384;2022-08-04T13:24:31;29.80;86.80
22635;DHT22;11484;50.858;4.384;2022-08-04T13:27:03;30.00;85.90
22635;DHT22;11484;50.858;4.384;2022-08-04T13:32:00;30.00;84.60
22635;DHT22;11484;50.858;4.384;2022-08-04T13:34:27;30.00;84.90
22635;DHT22;11484;50.858;4.384;2022-08-04T13:36:55;29.90;84.20
22635;DHT22;11484;50.858;4.384;2022-08-04T13:39:22;29.90;83.80
22635;DHT22;11484;50.858;4.384;2022-08-04T13:41:51;30.00;84.00
22635;DHT22;11484;50.858;4.384;2022-08-04T13:44:21;30.00;83.10
22635;DHT22;11484;50.858;4.384;2022-08-04T13:47:28;30.10;84.00
22635;DHT22;11484;50.858;4.384;2022-08-04T13:50:26;30.10;84.40
22635;DHT22;11484;50.858;4.384;2022-08-04T13:52:54;30.20;84.10
22635;DHT22;11484;50.858;4.384;2022-08-04T13:55:32;30.30;83.80
22635;DHT22;11484;50.858;4.384;2022-08-04T13:58:04;30.30;83.10
22635;DHT22;11484;50.858;4.384;2022-08-04T14:00:48;30.40;82.60
22635;DHT22;11484;50.858;4.384;2022-08-04T14:03:25;30.40;82.30
22635;DHT22;11484;50.858;4.384;2022-08-04T14:06:09;30.50;82.30
22635;DHT22;11484;50.858;4.384;2022-08-04T14:08:53;30.60;82.00
22635;DHT22;11484;50.858;4.384;2022-08-04T14:11:31;30.60;81.80
22635;DHT22;11484;50.858;4.384;2022-08-04T14:14:25;30.70;81.40
22635;DHT22;11484;50.858;4.384;2022-08-04T14:19:54;30.70;80.70
22635;DHT22;11484;50.858;4.384;2022-08-04T14:24:59;30.30;80.10
22635;DHT22;11484;50.858;4.384;2022-08-04T14:27:27;30.20;80.10
22635;DHT22;11484;50.858;4.384;2022-08-04T14:29:53;30.20;80.60
22635;DHT22;11484;50.858;4.384;2022-08-04T14:32:21;30.20;80.10
22635;DHT22;11484;50.858;4.384;2022-08-04T14:34:47;30.20;79.50
22635;DHT22;11484;50.858;4.384;2022-08-04T14:37:16;30.30;79.20
22635;DHT22;11484;50.858;4.384;2022-08-04T14:39:46;30.30;77.80
22635;DHT22;11484;50.858;4.384;2022-08-04T14:42:13;30.20;78.20
22635;DHT22;11484;50.858;4.384;2022-08-04T14:44:54;30.20;78.20
22635;DHT22;11484;50.858;4.384;2022-08-04T14:47:39;30.20;78.30
22635;DHT22;11484;50.858;4.384;2022-08-04T14:50:06;30.10;78.20
22635;DHT22;11484;50.858;4.384;2022-08-04T14:52:32;29.90;78.90
22635;DHT22;11484;50.858;4.384;2022-08-04T14:55:20;29.90;79.40
22635;DHT22;11484;50.858;4.384;2022-08-04T14:57:45;29.70;80.10
22635;DHT22;11484;50.858;4.384;2022-08-04T15:00:11;29.80;80.10
22635;DHT22;11484;50.858;4.384;2022-08-04T15:02:47;29.90;80.20
22635;DHT22;11484;50.858;4.384;2022-08-04T15:05:12;30.00;79.80
22635;DHT22;11484;50.858;4.384;2022-08-04T15:07:40;30.00;78.90
22635;DHT22;11484;50.858;4.384;2022-08-04T15:10:06;30.10;79.10
22635;DHT22;11484;50.858;4.384;2022-08-04T15:12:31;30.00;79.30
22635;DHT22;11484;50.858;4.384;2022-08-04T15:14:57;30.00;79.80
22635;DHT22;11484;50.858;4.384;2022-08-04T15:17:23;30.00;79.10
22635;DHT22;11484;50.858;4.384;2022-08-04T15:19:51;30.10;78.70
22635;DHT22;11484;50.858;4.384;2022-08-04T15:22:18;30.20;78.30
22635;DHT22;11484;50.858;4.384;2022-08-04T15:24:44;30.20;78.40
22635;DHT22;11484;50.858;4.384;2022-08-04T15:27:10;30.10;78.40
22635;DHT22;11484;50.858;4.384;2022-08-04T15:29:40;30.00;78.50
22635;DHT22;11484;50.858;4.384;2022-08-04T15:32:08;29.90;78.80
22635;DHT22;11484;50.858;4.384;2022-08-04T15:34:48;30.00;79.00
22635;DHT22;11484;50.858;4.384;2022-08-04T15:37:17;30.00;78.70
22635;DHT22;11484;50.858;4.384;2022-08-04T15:42:34;30.00;79.30
22635;DHT22;11484;50.858;4.384;2022-08-04T15:45:22;29.90;79.20
22635;DHT22;11484;50.858;4.384;2022-08-04T15:50:27;29.80;79.70
22635;DHT22;11484;50.858;4.384;2022-08-04T15:53:02;29.80;79.70
22635;DHT22;11484;50.858;4.384;2022-08-04T15:55:47;29.80;79.60
22635;DHT22;11484;50.858;4.384;2022-08-04T15:58:14;29.80;79.20
22635;DHT22;11484;50.858;4.384;2022-08-04T16:08:57;29.80;78.80
22635;DHT22;11484;50.858;4.384;2022-08-04T16:11:35;29.80;78.60
22635;DHT22;11484;50.858;4.384;2022-08-04T16:16:51;29.60;78.10
22635;DHT22;11484;50.858;4.384;2022-08-04T16:19:48;29.50;78.70
22635;DHT22;11484;50.858;4.384;2022-08-04T16:22:39;29.40;78.90
22635;DHT22;11484;50.858;4.384;2022-08-04T16:25:06;29.40;79.30
22635;DHT22;11484;50.858;4.384;2022-08-04T16:27:37;29.20;79.40
22635;DHT22;11484;50.858;4.384;2022-08-04T16:30:06;29.10;80.10
22635;DHT22;11484;50.858;4.384;2022-08-04T16:32:46;29.10;80.10
22635;DHT22;11484;50.858;4.384;2022-08-04T16:35:26;29.00;80.10
22635;DHT22;11484;50.858;4.384;2022-08-04T16:38:12;29.00;80.40
22635;DHT22;11484;50.858;4.384;2022-08-04T16:40:40;28.90;80.60
22635;DHT22;11484;50.858;4.384;2022-08-04T16:43:16;28.90;80.60
22635;DHT22;11484;50.858;4.384;2022-08-04T16:45:45;28.80;80.60
22635;DHT22;11484;50.858;4.384;2022-08-04T16:48:12;28.80;81.10
22635;DHT22;11484;50.858;4.384;2022-08-04T16:50:53;28.70;81.40
22635;DHT22;11484;50.858;4.384;2022-08-04T16:53:21;28.70;81.10
22635;DHT22;11484;50.858;4.384;2022-08-04T16:55:51;28.70;81.00
22635;DHT22;11484;50.858;4.384;2022-08-04T16:58:28;28.70;81.00
22635;DHT22;11484;50.858;4.384;2022-08-04T17:00:55;28.70;81.10
22635;DHT22;11484;50.858;4.384;2022-08-04T17:03:23;28.70;81.30
22635;DHT22;11484;50.858;4.384;2022-08-04T17:05:49;28.60;81.20
22635;DHT22;11484;50.858;4.384;2022-08-04T17:08:27;28.50;81.00
22635;DHT22;11484;50.858;4.384;2022-08-04T17:10:52;28.50;81.10
22635;DHT22;11484;50.858;4.384;2022-08-04T17:15:57;28.40;81.60
22635;DHT22;11484;50.858;4.384;2022-08-04T17:18:34;28.40;81.80
22635;DHT22;11484;50.858;4.384;2022-08-04T17:21:12;28.40;81.80
22635;DHT22;11484;50.858;4.384;2022-08-04T17:23:41;28.30;81.80
22635;DHT22;11484;50.858;4.384;2022-08-04T17:26:13;28.20;82.00
22635;DHT22;11484;50.858;4.384;2022-08-04T17:28:41;28.10;82.10
22635;DHT22;11484;50.858;4.384;2022-08-04T17:31:10;28.10;82.10
22635;DHT22;11484;50.858;4.384;2022-08-04T17:33:42;28.10;82.50
22635;DHT22;11484;50.858;4.384;2022-08-04T17:36:08;28.10;82.80
22635;DHT22;11484;50.858;4.384;2022-08-04T17:38:41;28.00;82.60
22635;DHT22;11484;50.858;4.384;2022-08-04T17:41:12;27.90;83.00
22635;DHT22;11484;50.858;4.384;2022-08-04T17:48:43;27.80;83.10
22635;DHT22;11484;50.858;4.384;2022-08-04T17:51:14;27.60;83.10
22635;DHT22;11484;50.858;4.384;2022-08-04T17:53:41;27.60;83.50
22635;DHT22;11484;50.858;4.384;2022-08-04T17:56:27;27.50;83.50
22635;DHT22;11484;50.858;4.384;2022-08-04T18:07:09;27.10;84.10
22635;DHT22;11484;50.858;4.384;2022-08-04T18:09:49;26.90;84.80
22635;DHT22;11484;50.858;4.384;2022-08-04T18:12:28;27.00;85.20
22635;DHT22;11484;50.858;4.384;2022-08-04T18:15:05;27.00;85.20
22635;DHT22;11484;50.858;4.384;2022-08-04T18:20:05;27.00;85.00
22635;DHT22;11484;50.858;4.384;2022-08-04T18:22:32;26.90;85.00
22635;DHT22;11484;50.858;4.384;2022-08-04T18:25:10;26.90;84.90
22635;DHT22;11484;50.858;4.384;2022-08-04T18:27:58;26.90;84.90
22635;DHT22;11484;50.858;4.384;2022-08-04T18:30:25;26.80;84.90
22635;DHT22;11484;50.858;4.384;2022-08-04T18:32:53;26.60;84.40
22635;DHT22;11484;50.858;4.384;2022-08-04T18:35:20;26.50;84.60
22635;DHT22;11484;50.858;4.384;2022-08-04T18:37:48;26.40;84.60
22635;DHT22;11484;50.858;4.384;2022-08-04T18:40:16;26.40;84.80
22635;DHT22;11484;50.858;4.384;2022-08-04T18:42:42;26.30;84.80
22635;DHT22;11484;50.858;4.384;2022-08-04T18:45:08;26.20;85.30
22635;DHT22;11484;50.858;4.384;2022-08-04T18:47:40;26.20;84.70
22635;DHT22;11484;50.858;4.384;2022-08-04T18:50:06;26.10;84.60
22635;DHT22;11484;50.858;4.384;2022-08-04T18:52:32;25.90;84.80
22635;DHT22;11484;50.858;4.384;2022-08-04T18:54:57;26.00;85.20
22635;DHT22;11484;50.858;4.384;2022-08-04T18:57:25;25.90;85.20
22635;DHT22;11484;50.858;4.384;2022-08-04T18:59:55;25.80;85.10
22635;DHT22;11484;50.858;4.384;2022-08-04T19:02:21;25.80;85.30
22635;DHT22;11484;50.858;4.384;2022-08-04T19:04:47;25.70;85.60
22635;DHT22;11484;50.858;4.384;2022-08-04T19:07:14;25.60;87.10
22635;DHT22;11484;50.858;4.384;2022-08-04T19:09:43;25.60;88.50
22635;DHT22;11484;50.858;4.384;2022-08-04T19:12:09;25.60;90.60
22635;DHT22;11484;50.858;4.384;2022-08-04T19:14:35;25.40;91.30
22635;DHT22;11484;50.858;4.384;2022-08-04T19:17:01;25.30;92.90
22635;DHT22;11484;50.858;4.384;2022-08-04T19:19:27;25.20;92.80
22635;DHT22;11484;50.858;4.384;2022-08-04T19:21:53;25.10;93.70
22635;DHT22;11484;50.858;4.384;2022-08-04T19:24:19;25.10;95.00
22635;DHT22;11484;50.858;4.384;2022-08-04T19:26:44;24.90;97.40
22635;DHT22;11484;50.858;4.384;2022-08-04T19:29:10;24.80;98.30
22635;DHT22;11484;50.858;4.384;2022-08-04T19:31:36;24.70;99.00
22635;DHT22;11484;50.858;4.384;2022-08-04T19:34:02;24.80;99.90
22635;DHT22;11484;50.858;4.384;2022-08-04T19:36:29;24.70;99.90
22635;DHT22;11484;50.858;4.384;2022-08-04T19:38:56;24.60;99.90
22635;DHT22;11484;50.858;4.384;2022-08-04T19:41:22;24.50;99.90
22635;DHT22;11484;50.858;4.384;2022-08-04T19:43:48;24.40;99.90
22635;DHT22;11484;50.858;4.384;2022-08-04T19:46:14;24.40;99.90
22635;DHT22;11484;50.858;4.384;2022-08-04T19:48:40;24.30;99.90
22635;DHT22;11484;50.858;4.384;2022-08-04T19:51:06;24.10;99.90
22635;DHT22;11484;50.858;4.384;2022-08-04T19:53:32;23.80;99.90
22635;DHT22;11484;50.858;4.384;2022-08-04T19:55:58;23.50;99.90
22635;DHT22;11484;50.858;4.384;2022-08-04T19:58:24;23.30;99.90
22635;DHT22;11484;50.858;4.384;2022-08-04T20:00:50;23.10;99.90
22635;DHT22;11484;50.858;4.384;2022-08-04T20:03:17;23.10;99.90
22635;DHT22;11484;50.858;4.384;2022-08-04T20:05:44;23.00;99.90
22635;DHT22;11484;50.858;4.384;2022-08-04T20:08:10;22.90;99.90
22635;DHT22;11484;50.858;4.384;2022-08-04T20:10:36;22.90;99.90
22635;DHT22;11484;50.858;4.384;2022-08-04T20:13:03;22.90;99.90
22635;DHT22;11484;50.858;4.384;2022-08-04T20:15:29;22.90;99.90
22635;DHT22;11484;50.858;4.384;2022-08-04T20:17:55;22.90;99.90